Time;durP1;ratioP1;P1;durP2;ratioP2;P2;SDS_P1;SDS_P2;PMS_P1;PMS_P2;Temp;Humidity;BMP_temperature;BMP_pressure;BME280_temperature;BME280_humidity;BME280_pressure;Samples;Min_cycle;Max_cycle;Signal;HPM_P1;HPM_P2
2023/10/01 00:00:43;;;;;;;12.63;8.70;;;;;;;14.69;63.15;97189.31;5045661;28;20747;-69
2023/10/01 00:03:09;;;;;;;15.10;8.90;;;;;;;14.74;62.93;97205.81;5045595;28;20159;-69
2023/10/01 00:05:35;;;;;;;13.73;8.63;;;;;;;14.77;62.78;97203.03;5044440;28;20559;-69
2023/10/01 00:08:01;;;;;;;16.50;9.17;;;;;;;14.85;62.30;97197.38;5050404;28;20171;-69
2023/10/01 00:10:27;;;;;;;11.67;8.00;;;;;;;14.73;62.61;97196.16;5057166;28;20429;-69
2023/10/01 00:12:54;;;;;;;15.97;9.07;;;;;;;14.81;62.22;97190.50;5059324;28;20201;-69
2023/10/01 00:15:24;;;;;;;13.57;8.80;;;;;;;14.90;61.83;97195.34;5056879;28;20195;-67
2023/10/01 00:17:49;;;;;;;12.73;7.93;;;;;;;14.79;61.78;97197.69;5051954;28;20401;-70
2023/10/01 00:20:23;;;;;;;16.43;8.60;;;;;;;14.86;61.75;97206.13;5046738;28;21127;-69
2023/10/01 00:22:59;;;;;;;14.50;8.67;;;;;;;14.90;61.72;97197.13;5046383;28;20187;-70
2023/10/01 00:25:26;;;;;;;14.87;9.27;;;;;;;14.84;61.72;97198.31;5049129;28;20405;-69
2023/10/01 00:27:52;;;;;;;13.23;8.30;;;;;;;14.79;61.94;97193.25;5048636;28;20402;-69
2023/10/01 00:30:17;;;;;;;13.40;9.93;;;;;;;14.92;61.58;97197.94;5048819;28;20494;-69
2023/10/01 00:32:43;;;;;;;14.40;8.87;;;;;;;14.63;62.18;97196.69;5048892;28;20174;-69
2023/10/01 00:35:12;;;;;;;14.93;8.10;;;;;;;14.73;62.30;97203.25;5048570;28;20167;-68
2023/10/01 00:37:38;;;;;;;22.53;9.53;;;;;;;14.70;62.25;97193.69;5048859;28;20222;-70
2023/10/01 00:40:05;;;;;;;16.20;8.50;;;;;;;14.73;62.25;97197.97;5048549;28;20452;-68
2023/10/01 00:42:34;;;;;;;14.80;8.47;;;;;;;14.73;62.27;97195.31;5048639;28;20425;-69
2023/10/01 00:45:00;;;;;;;19.23;9.67;;;;;;;14.85;61.95;97191.22;5048953;28;21183;-69
2023/10/01 00:47:27;;;;;;;15.43;9.37;;;;;;;14.96;61.34;97194.22;5048369;28;20475;-70
2023/10/01 00:49:54;;;;;;;16.20;9.00;;;;;;;14.74;61.56;97195.25;5048522;28;20978;-68
2023/10/01 00:52:20;;;;;;;17.20;9.50;;;;;;;14.67;61.67;97183.25;5048545;28;20464;-70
2023/10/01 00:54:47;;;;;;;14.13;8.47;;;;;;;14.63;61.83;97184.34;5048317;28;20448;-69
2023/10/01 00:57:15;;;;;;;16.03;8.73;;;;;;;14.60;61.79;97177.41;5047973;28;20453;-69
2023/10/01 00:59:44;;;;;;;14.13;8.37;;;;;;;14.46;61.93;97185.09;5048266;28;20987;-70
2023/10/01 01:02:10;;;;;;;15.63;8.90;;;;;;;14.49;62.09;97187.59;5048542;28;20405;-70
2023/10/01 01:04:44;;;;;;;14.97;8.17;;;;;;;14.52;62.02;97191.88;5048569;28;20410;-68
2023/10/01 01:07:19;;;;;;;15.50;10.80;;;;;;;14.52;61.76;97191.88;5048535;28;20443;-70
2023/10/01 01:09:46;;;;;;;12.80;8.90;;;;;;;14.51;62.01;97188.38;5048245;28;20429;-69
2023/10/01 01:12:12;;;;;;;13.90;8.60;;;;;;;14.44;62.24;97192.25;5048178;28;20768;-70
2023/10/01 01:14:38;;;;;;;19.23;9.10;;;;;;;14.48;62.16;97188.53;5048199;28;20487;-67
2023/10/01 01:17:04;;;;;;;11.37;8.10;;;;;;;14.51;62.05;97183.09;5048110;28;20448;-69
2023/10/01 01:19:30;;;;;;;12.80;8.30;;;;;;;14.53;61.73;97175.97;5048125;28;21298;-69
2023/10/01 01:21:56;;;;;;;14.10;8.90;;;;;;;14.54;61.77;97169.78;5047933;28;20753;-69
2023/10/01 01:24:24;;;;;;;19.57;8.47;;;;;;;14.47;61.94;97170.09;5048124;28;20417;-69
2023/10/01 01:26:51;;;;;;;13.60;7.73;;;;;;;14.48;61.64;97171.81;5047626;28;20875;-69
2023/10/01 01:29:29;;;;;;;21.40;10.90;;;;;;;14.46;61.69;97166.63;5047751;28;20533;-69
2023/10/01 01:32:15;;;;;;;51.63;12.20;;;;;;;14.60;61.27;97179.22;5047979;28;20412;-69
2023/10/01 01:34:41;;;;;;;18.50;8.50;;;;;;;14.45;61.64;97172.81;5047855;28;20892;-68
2023/10/01 01:37:08;;;;;;;13.90;8.40;;;;;;;14.46;61.45;97169.25;5047412;28;20449;-67
2023/10/01 01:39:45;;;;;;;18.03;9.60;;;;;;;14.43;61.82;97174.66;5047783;28;20874;-68
2023/10/01 01:42:11;;;;;;;13.93;8.70;;;;;;;14.31;61.76;97176.09;5047942;28;20470;-69
2023/10/01 01:44:38;;;;;;;18.53;8.77;;;;;;;14.35;61.90;97172.38;5047522;28;20816;-70
2023/10/01 01:47:07;;;;;;;16.57;8.90;;;;;;;14.38;61.87;97169.59;5048232;28;20175;-68
2023/10/01 01:49:32;;;;;;;15.43;7.57;;;;;;;14.37;61.80;97161.75;5047828;28;20470;-68
2023/10/01 01:51:59;;;;;;;15.40;9.23;;;;;;;14.21;62.27;97158.13;5047854;28;20774;-69
2023/10/01 01:54:29;;;;;;;12.50;7.33;;;;;;;14.22;62.37;97173.91;5047576;28;20190;-69
2023/10/01 01:56:57;;;;;;;16.70;8.53;;;;;;;14.28;62.36;97175.38;5047357;28;20893;-69
2023/10/01 01:59:27;;;;;;;15.20;8.33;;;;;;;14.19;62.44;97169.59;5047536;28;20468;-70
2023/10/01 02:01:53;;;;;;;15.90;7.77;;;;;;;14.11;62.68;97169.09;5047850;28;20452;-70
2023/10/01 02:04:18;;;;;;;12.53;8.77;;;;;;;14.14;62.62;97170.75;5047605;28;20902;-69
2023/10/01 02:06:47;;;;;;;13.37;8.10;;;;;;;14.10;62.47;97166.53;5046917;28;20641;-69
2023/10/01 02:09:12;;;;;;;17.67;7.70;;;;;;;14.14;62.14;97174.22;5047080;28;20190;-70
2023/10/01 02:11:38;;;;;;;14.60;9.13;;;;;;;14.18;62.27;97172.31;5046894;28;20417;-69
2023/10/01 02:14:05;;;;;;;19.27;9.10;;;;;;;14.08;62.40;97174.53;5047034;28;20214;-68
2023/10/01 02:16:37;;;;;;;16.77;9.00;;;;;;;14.15;62.18;97175.09;5046692;28;20661;-67
2023/10/01 02:19:21;;;;;;;16.53;8.30;;;;;;;14.02;62.74;97169.50;5046981;28;20433;-69
2023/10/01 02:22:00;;;;;;;15.80;8.20;;;;;;;14.06;62.35;97165.81;5046874;28;20451;-69
2023/10/01 02:24:45;;;;;;;12.70;7.60;;;;;;;13.92;62.63;97170.88;5046969;28;20421;-69
2023/10/01 02:27:15;;;;;;;12.40;8.33;;;;;;;14.02;62.50;97173.94;5046669;28;20441;-69
2023/10/01 02:32:28;;;;;;;16.10;8.87;;;;;;;14.00;62.49;97181.06;5046973;28;20416;-69
2023/10/01 02:34:56;;;;;;;14.37;8.37;;;;;;;14.03;62.30;97187.09;5046543;28;20444;-67
2023/10/01 02:37:29;;;;;;;16.83;8.20;;;;;;;14.09;62.10;97186.78;5046146;28;20540;-68
2023/10/01 02:39:59;;;;;;;14.80;8.20;;;;;;;14.09;62.29;97180.66;5046542;28;20433;-69
2023/10/01 02:42:27;;;;;;;13.73;7.77;;;;;;;14.03;62.27;97176.53;5046585;28;20405;-68
2023/10/01 02:44:53;;;;;;;13.87;7.03;;;;;;;13.88;62.85;97166.66;5046707;28;20409;-68
2023/10/01 02:47:20;;;;;;;14.43;7.50;;;;;;;13.94;62.90;97171.66;5046395;28;20756;-69
2023/10/01 02:49:58;;;;;;;12.90;8.43;;;;;;;14.00;62.10;97167.88;5046758;28;20437;-69
2023/10/01 02:52:36;;;;;;;12.60;7.70;;;;;;;14.05;62.05;97161.44;5046760;28;20410;-69
2023/10/01 02:55:17;;;;;;;16.70;7.33;;;;;;;14.02;62.29;97161.59;5046278;28;20423;-69
2023/10/01 02:57:44;;;;;;;12.50;7.80;;;;;;;13.87;62.61;97152.59;5046010;28;20406;-68
2023/10/01 03:02:49;;;;;;;15.90;8.10;;;;;;;13.84;62.70;97157.16;5046321;28;20440;-69
2023/10/01 03:05:18;;;;;;;22.03;8.40;;;;;;;13.82;62.45;97157.22;5045937;28;20427;-69
2023/10/01 03:07:50;;;;;;;15.27;8.43;;;;;;;13.67;63.38;97158.75;5045785;28;20417;-70
2023/10/01 03:10:23;;;;;;;14.00;8.20;;;;;;;13.71;63.08;97154.22;5045748;28;20429;-69
2023/10/01 03:12:50;;;;;;;15.83;7.80;;;;;;;13.89;62.21;97153.41;5045977;28;20421;-69
2023/10/01 03:15:29;;;;;;;19.03;8.37;;;;;;;13.92;62.60;97147.13;5045382;28;20474;-69
2023/10/01 03:17:57;;;;;;;19.80;8.67;;;;;;;13.81;62.53;97138.81;5045550;28;20428;-67
2023/10/01 03:23:25;;;;;;;13.60;8.87;;;;;;;13.82;62.32;97145.81;5045923;28;20413;-69
2023/10/01 03:26:26;;;;;;;15.40;9.00;;;;;;;14.01;61.74;97145.81;5045545;28;20800;-70
2023/10/01 03:31:29;;;;;;;13.03;8.57;;;;;;;13.70;62.31;97152.47;5046069;28;20467;-67
2023/10/01 03:33:54;;;;;;;10.33;7.60;;;;;;;13.63;63.07;97143.13;5045975;28;20405;-69
2023/10/01 03:36:25;;;;;;;13.57;7.17;;;;;;;13.73;62.28;97147.94;5045500;28;20457;-69
2023/10/01 03:38:59;;;;;;;12.63;8.40;;;;;;;13.72;62.45;97145.34;5045915;28;20230;-69
2023/10/01 03:41:27;;;;;;;17.97;8.10;;;;;;;13.78;62.58;97150.38;5045926;28;20441;-69
2023/10/01 03:44:08;;;;;;;12.17;7.60;;;;;;;13.75;62.66;97151.38;5045784;28;20410;-69
2023/10/01 03:46:40;;;;;;;18.50;8.63;;;;;;;13.80;62.45;97153.81;5045406;28;20447;-67
2023/10/01 03:51:58;;;;;;;12.07;7.10;;;;;;;13.52;63.73;97162.06;5045580;28;20411;-69
2023/10/01 03:57:19;;;;;;;14.83;9.10;;;;;;;13.58;63.24;97155.66;5045446;28;20874;-69
2023/10/01 03:59:57;;;;;;;18.17;8.37;;;;;;;13.49;63.30;97149.03;5049250;28;20441;-69
2023/10/01 04:02:27;;;;;;;13.30;8.50;;;;;;;13.35;63.95;97157.53;5049315;28;20417;-69
2023/10/01 04:04:59;;;;;;;12.80;7.50;;;;;;;13.32;64.30;97153.25;5049368;28;20440;-69
2023/10/01 04:07:43;;;;;;;12.10;7.60;;;;;;;13.40;63.59;97159.97;5049053;28;20473;-69
2023/10/01 04:10:21;;;;;;;16.47;7.90;;;;;;;13.30;63.50;97160.38;5049253;28;20940;-69
2023/10/01 04:12:54;;;;;;;15.87;7.50;;;;;;;13.26;63.57;97152.63;5049081;28;20836;-69
2023/10/01 04:15:30;;;;;;;16.70;7.00;;;;;;;13.28;63.37;97153.44;5048928;28;20429;-69
2023/10/01 04:18:39;;;;;;;15.23;9.00;;;;;;;13.02;64.06;97149.25;5048786;28;20511;-68
2023/10/01 04:23:29;;;;;;;11.50;6.73;;;;;;;13.11;64.61;97151.50;5049034;28;20958;-70
2023/10/01 04:26:04;;;;;;;13.73;8.20;;;;;;;13.14;64.19;97154.00;5048849;28;20412;-69
2023/10/01 04:28:35;;;;;;;14.53;7.47;;;;;;;13.14;64.41;97154.00;5049378;28;20451;-70
2023/10/01 04:31:09;;;;;;;16.50;7.80;;;;;;;13.09;64.26;97153.34;5049221;28;20460;-69
2023/10/01 04:33:42;;;;;;;16.87;8.03;;;;;;;13.26;63.65;97161.38;5049071;28;20445;-69
2023/10/01 04:36:11;;;;;;;33.87;11.37;;;;;;;13.27;63.41;97168.38;5047392;28;20461;-68
2023/10/01 04:38:37;;;;;;;14.80;7.87;;;;;;;13.28;63.42;97156.09;5049012;28;21138;-69
2023/10/01 04:41:03;;;;;;;17.17;8.20;;;;;;;13.23;63.42;97156.25;5048941;28;20409;-69
2023/10/01 04:43:42;;;;;;;17.37;8.23;;;;;;;13.26;63.14;97164.00;5048902;28;20889;-68
2023/10/01 04:46:08;;;;;;;13.53;8.33;;;;;;;13.18;63.83;97166.13;5048281;28;20174;-70
2023/10/01 04:48:36;;;;;;;18.00;8.63;;;;;;;13.21;63.45;97163.34;5048628;28;20459;-70
2023/10/01 04:51:07;;;;;;;18.43;7.87;;;;;;;13.30;63.06;97156.88;5048518;28;20414;-70
2023/10/01 04:53:33;;;;;;;15.57;7.87;;;;;;;13.21;64.02;97158.09;5048521;28;20423;-69
2023/10/01 04:56:05;;;;;;;19.60;10.03;;;;;;;13.13;63.75;97157.53;5048146;28;20475;-68
2023/10/01 04:58:36;;;;;;;17.03;9.33;;;;;;;13.07;63.53;97150.75;5048415;28;20428;-68
2023/10/01 05:01:05;;;;;;;12.37;7.50;;;;;;;13.01;63.58;97158.06;5048544;28;20417;-70
2023/10/01 05:03:40;;;;;;;11.90;8.00;;;;;;;13.03;63.29;97153.56;5048570;28;20496;-70
2023/10/01 05:06:13;;;;;;;18.77;7.70;;;;;;;13.09;63.23;97142.78;5048398;28;21216;-69
2023/10/01 05:08:42;;;;;;;17.03;8.20;;;;;;;13.06;63.95;97140.25;5048085;28;20434;-69
2023/10/01 05:11:12;;;;;;;21.33;8.20;;;;;;;12.98;63.53;97145.88;5048408;28;20884;-71
2023/10/01 05:13:39;;;;;;;59.00;13.40;;;;;;;13.03;63.37;97137.75;5048447;28;20892;-69
2023/10/01 05:16:06;;;;;;;107.13;17.57;;;;;;;13.09;63.15;97137.53;5048133;28;20463;-69
2023/10/01 05:18:33;;;;;;;99.50;19.00;;;;;;;13.10;62.77;97141.84;5048450;28;20417;-70
2023/10/01 05:20:59;;;;;;;29.87;9.30;;;;;;;12.88;63.88;97150.66;5048781;28;20414;-68
2023/10/01 05:23:27;;;;;;;15.73;8.10;;;;;;;12.84;63.48;97156.97;5048654;28;20420;-69
2023/10/01 05:25:56;;;;;;;11.70;7.40;;;;;;;12.91;63.43;97158.44;5047958;28;20770;-70
2023/10/01 05:28:31;;;;;;;11.93;8.00;;;;;;;13.01;63.82;97166.81;5048188;28;20428;-68
2023/10/01 05:31:06;;;;;;;10.13;7.00;;;;;;;12.93;64.19;97167.13;5048083;28;20431;-69
2023/10/01 05:33:38;;;;;;;76.40;13.93;;;;;;;13.17;63.02;97171.44;5048392;28;20409;-68
2023/10/01 05:36:04;;;;;;;20.27;9.43;;;;;;;13.21;62.80;97167.78;5047960;28;20549;-68
2023/10/01 05:38:36;;;;;;;15.00;7.73;;;;;;;13.53;62.31;97163.78;5048150;28;20408;-69
2023/10/01 05:41:09;;;;;;;20.87;7.37;;;;;;;13.72;61.50;97177.91;5048503;28;20483;-69
2023/10/01 05:43:38;;;;;;;14.33;6.83;;;;;;;13.79;61.17;97167.91;5048611;28;20397;-69
2023/10/01 05:46:08;;;;;;;13.87;8.40;;;;;;;14.07;60.25;97170.16;5048226;28;20856;-68
2023/10/01 05:48:44;;;;;;;13.33;7.43;;;;;;;14.22;59.66;97165.97;5052298;28;20450;-69
2023/10/01 05:51:20;;;;;;;12.30;8.20;;;;;;;14.61;58.64;97157.13;5064208;28;20537;-69
2023/10/01 05:53:46;;;;;;;9.77;6.20;;;;;;;14.76;57.82;97151.13;5068312;28;20413;-68
2023/10/01 05:56:17;;;;;;;12.10;7.00;;;;;;;15.07;57.15;97151.38;5066219;28;20869;-68
2023/10/01 05:58:43;;;;;;;11.40;8.33;;;;;;;15.45;55.82;97155.59;5065787;28;20441;-68
2023/10/01 06:01:16;;;;;;;13.20;8.10;;;;;;;15.78;55.03;97143.34;5051537;28;20500;-68
2023/10/01 06:03:48;;;;;;;14.13;8.30;;;;;;;15.96;54.55;97146.81;5047303;28;20518;-70
2023/10/01 06:06:14;;;;;;;22.10;8.23;;;;;;;16.26;53.48;97146.97;5047231;28;20982;-70
2023/10/01 06:08:49;;;;;;;22.60;9.40;;;;;;;16.55;52.89;97153.28;5047787;28;20437;-69
2023/10/01 06:11:16;;;;;;;55.13;12.77;;;;;;;16.75;52.49;97153.97;5047511;28;20178;-69
2023/10/01 06:13:51;;;;;;;18.00;9.20;;;;;;;17.23;50.99;97149.47;5047676;28;20405;-70
2023/10/01 06:16:23;;;;;;;45.00;11.13;;;;;;;17.35;50.33;97156.72;5047646;28;20460;-68
2023/10/01 06:18:58;;;;;;;13.13;7.50;;;;;;;17.59;49.94;97153.53;5047206;28;20433;-69
2023/10/01 06:21:31;;;;;;;13.13;9.30;;;;;;;17.84;49.31;97158.25;5046510;28;20752;-70
2023/10/01 06:24:04;;;;;;;14.10;7.50;;;;;;;18.04;48.85;97165.00;5047307;28;20779;-67
2023/10/01 06:26:36;;;;;;;11.97;8.43;;;;;;;18.28;48.21;97167.94;5046964;28;20406;-70
2023/10/01 06:29:03;;;;;;;13.60;8.10;;;;;;;18.62;47.26;97169.31;5046896;28;21225;-69
2023/10/01 06:31:40;;;;;;;12.30;8.20;;;;;;;18.85;46.60;97169.66;5046768;28;20413;-69
2023/10/01 06:34:06;;;;;;;14.30;8.10;;;;;;;19.07;45.96;97171.78;5046925;28;20409;-70
2023/10/01 06:36:31;;;;;;;11.13;8.90;;;;;;;19.13;45.86;97174.88;5046579;28;20463;-69
2023/10/01 06:38:59;;;;;;;14.90;8.23;;;;;;;19.45;45.28;97174.56;5046602;28;20202;-69
2023/10/01 06:41:28;;;;;;;12.47;8.20;;;;;;;19.63;44.63;97175.09;5046668;28;20178;-70
2023/10/01 06:43:58;;;;;;;11.43;7.10;;;;;;;20.29;43.31;97181.22;5046625;28;20413;-68
2023/10/01 06:46:29;;;;;;;11.97;7.63;;;;;;;20.50;42.63;97171.72;5046229;28;20421;-69
2023/10/01 06:48:58;;;;;;;12.67;7.83;;;;;;;20.54;42.70;97175.00;5046570;28;20433;-69
2023/10/01 06:51:26;;;;;;;13.93;8.37;;;;;;;20.96;41.88;97169.38;5046826;28;20451;-67
2023/10/01 06:53:59;;;;;;;9.63;7.43;;;;;;;21.29;41.03;97166.03;5046544;28;20420;-69
2023/10/01 06:56:26;;;;;;;11.70;8.57;;;;;;;21.19;41.35;97171.19;5046482;28;20488;-69
2023/10/01 06:59:12;;;;;;;11.60;8.70;;;;;;;21.68;40.24;97169.31;5047524;28;20494;-69
2023/10/01 07:01:42;;;;;;;11.90;8.20;;;;;;;21.63;40.22;97176.84;5046921;28;20420;-68
2023/10/01 07:04:09;;;;;;;14.60;7.70;;;;;;;21.83;39.98;97180.66;5046694;28;20898;-69
2023/10/01 07:06:37;;;;;;;14.13;8.30;;;;;;;21.92;39.47;97183.50;5046655;28;20488;-69
2023/10/01 07:09:23;;;;;;;19.87;9.10;;;;;;;21.87;39.50;97176.78;5046368;28;20440;-69
2023/10/01 07:11:49;;;;;;;12.40;8.43;;;;;;;21.47;40.93;97183.38;5046335;28;20412;-68
2023/10/01 07:14:14;;;;;;;14.97;9.70;;;;;;;21.27;41.07;97184.81;5046744;28;20423;-69
2023/10/01 07:16:40;;;;;;;14.57;8.83;;;;;;;20.97;41.86;97179.06;5046018;28;20465;-69
2023/10/01 07:19:11;;;;;;;13.80;8.63;;;;;;;20.86;42.45;97177.22;5046398;28;20202;-69
2023/10/01 07:21:37;;;;;;;20.97;9.37;;;;;;;21.31;41.44;97172.94;5046195;28;20261;-69
2023/10/01 07:24:04;;;;;;;15.60;8.70;;;;;;;21.65;40.71;97173.09;5046518;28;20547;-68
2023/10/01 07:26:30;;;;;;;12.67;7.30;;;;;;;21.93;40.18;97177.16;5045773;28;20978;-69
2023/10/01 07:28:56;;;;;;;14.40;7.77;;;;;;;22.11;39.85;97176.69;5046362;28;20783;-69
2023/10/01 07:31:24;;;;;;;12.80;9.13;;;;;;;20.90;42.59;97186.66;5046303;28;20437;-71
2023/10/01 07:33:53;;;;;;;23.93;10.00;;;;;;;21.49;41.60;97186.75;5050167;28;20547;-68
2023/10/01 07:36:19;;;;;;;24.33;9.70;;;;;;;20.82;43.18;97191.72;5049898;28;20461;-71
2023/10/01 07:38:49;;;;;;;19.07;9.40;;;;;;;21.65;41.65;97191.78;5050985;28;20797;-68
2023/10/01 07:41:18;;;;;;;17.70;9.67;;;;;;;21.29;42.24;97193.56;5050564;28;20503;-70
2023/10/01 07:43:43;;;;;;;14.60;9.20;;;;;;;22.08;40.77;97191.16;5050202;28;20414;-68
2023/10/01 07:46:09;;;;;;;13.43;8.20;;;;;;;21.98;41.02;97195.50;5050053;28;20401;-70
2023/10/01 07:48:47;;;;;;;13.20;8.17;;;;;;;21.25;42.61;97205.44;5050720;28;20174;-69
2023/10/01 07:51:28;;;;;;;14.23;9.83;;;;;;;20.52;44.18;97212.44;5050902;28;20181;-69
2023/10/01 07:53:57;;;;;;;14.10;9.70;;;;;;;20.37;45.28;97210.88;5050608;28;20416;-69
2023/10/01 07:56:23;;;;;;;14.90;9.80;;;;;;;20.19;45.37;97213.00;5049937;28;20483;-69
2023/10/01 08:01:37;;;;;;;14.77;8.67;;;;;;;20.36;45.46;97213.63;5050240;28;20408;-68
2023/10/01 08:04:08;;;;;;;14.43;9.17;;;;;;;20.63;45.20;97217.06;5049849;28;20436;-69
2023/10/01 08:06:43;;;;;;;17.07;9.53;;;;;;;21.69;42.94;97205.78;5049363;28;20171;-69
2023/10/01 08:09:13;;;;;;;19.60;9.97;;;;;;;21.91;42.45;97210.31;5049331;28;20445;-67
2023/10/01 08:14:27;;;;;;;12.70;9.50;;;;;;;21.68;43.21;97217.41;5030162;28;20409;-68
2023/10/01 08:16:56;;;;;;;15.57;9.67;;;;;;;22.05;42.16;97206.59;5029523;28;20859;-67
2023/10/01 08:19:22;;;;;;;13.87;9.60;;;;;;;21.89;42.93;97206.91;5029567;28;20433;-68
2023/10/01 08:21:51;;;;;;;15.50;9.63;;;;;;;22.53;41.86;97203.72;5029678;28;20405;-69
2023/10/01 08:24:20;;;;;;;16.30;9.87;;;;;;;23.04;40.78;97196.03;5029667;28;20198;-69
2023/10/01 08:26:57;;;;;;;12.40;8.70;;;;;;;23.36;40.26;97195.22;5029218;28;20408;-68
2023/10/01 08:32:11;;;;;;;22.57;9.57;;;;;;;23.86;39.29;97194.66;5030062;28;20436;-69
2023/10/01 08:35:22;;;;;;;41.13;12.23;;;;;;;23.80;39.27;97197.84;5029700;28;20414;-68
2023/10/01 08:37:23;;;;;;;23.93;11.53;;;;;;;23.97;39.29;97204.47;5022033;28;20223;-67
2023/10/01 08:39:53;;;;;;;18.37;9.80;;;;;;;23.98;39.12;97200.81;5031880;28;20434;-68
2023/10/01 08:42:19;;;;;;;18.60;11.00;;;;;;;24.18;39.04;97202.59;5030667;28;20340;-68
2023/10/01 08:44:49;;;;;;;23.00;11.40;;;;;;;24.18;39.32;97196.41;5030103;28;20419;-69
2023/10/01 08:47:34;;;;;;;18.43;10.30;;;;;;;23.99;39.40;97207.84;5029817;28;20496;-70
2023/10/01 08:52:57;;;;;;;18.67;11.33;;;;;;;24.17;39.11;97198.25;5029792;28;20436;-70
2023/10/01 08:55:24;;;;;;;19.53;11.00;;;;;;;23.88;39.84;97204.28;5028801;28;20430;-70
2023/10/01 08:57:53;;;;;;;16.07;10.80;;;;;;;24.18;39.53;97197.25;5029003;28;20414;-70
2023/10/01 09:00:22;;;;;;;41.67;13.20;;;;;;;24.41;39.49;97200.63;5028676;28;20430;-69
2023/10/01 09:03:10;;;;;;;17.07;10.97;;;;;;;24.38;39.33;97198.22;5028748;28;20979;-68
2023/10/01 09:05:36;;;;;;;25.73;13.23;;;;;;;24.70;39.03;97211.50;5028797;28;20460;-69
2023/10/01 09:08:26;;;;;;;30.90;12.70;;;;;;;24.70;39.06;97203.44;5028714;28;20410;-68
2023/10/01 09:10:53;;;;;;;20.33;11.23;;;;;;;24.85;38.86;97205.75;5028507;28;20410;-68
2023/10/01 09:13:22;;;;;;;26.60;11.47;;;;;;;24.15;40.36;97204.72;5042187;28;20417;-67
2023/10/01 09:15:55;;;;;;;20.37;11.87;;;;;;;23.12;42.97;97205.28;5048250;28;20467;-69
2023/10/01 09:18:25;;;;;;;27.10;11.27;;;;;;;22.98;43.45;97198.31;5048583;28;20484;-69
2023/10/01 09:21:06;;;;;;;19.73;12.03;;;;;;;23.45;42.50;97198.94;5048767;28;20409;-69
2023/10/01 09:23:57;;;;;;;22.20;12.20;;;;;;;23.68;42.20;97197.03;5048624;28;20642;-70
2023/10/01 09:26:42;;;;;;;14.07;9.97;;;;;;;23.14;43.60;97193.47;5047950;28;20429;-67
2023/10/01 09:29:22;;;;;;;22.40;11.17;;;;;;;23.15;43.37;97188.94;5048292;28;20492;-69
2023/10/01 09:31:56;;;;;;;18.63;12.00;;;;;;;22.73;45.08;97191.47;5048513;28;20440;-72
2023/10/01 09:34:36;;;;;;;25.83;11.50;;;;;;;24.17;42.05;97184.00;5048576;28;20488;-69
2023/10/01 09:37:11;;;;;;;19.90;10.67;;;;;;;24.58;41.04;97183.06;5048166;28;20449;-68
2023/10/01 09:39:41;;;;;;;19.87;11.10;;;;;;;24.00;42.69;97183.59;5047973;28;20920;-69
2023/10/01 09:42:25;;;;;;;21.13;12.33;;;;;;;21.65;47.28;97194.47;5047922;28;20413;-68
2023/10/01 09:44:55;;;;;;;25.37;12.33;;;;;;;22.18;46.42;97189.47;5047629;28;20413;-70
2023/10/01 09:47:25;;;;;;;20.43;11.67;;;;;;;22.15;47.01;97189.69;5047449;28;20496;-69
2023/10/01 09:49:59;;;;;;;42.73;14.07;;;;;;;23.66;43.96;97183.75;5047599;28;20518;-69
2023/10/01 09:52:30;;;;;;;19.00;11.63;;;;;;;23.73;43.37;97180.56;5047685;28;20452;-68
2023/10/01 09:55:24;;;;;;;24.83;11.10;;;;;;;23.11;44.87;97176.81;5047029;28;20434;-70
2023/10/01 09:57:53;;;;;;;23.83;13.07;;;;;;;23.78;43.53;97184.56;5047503;28;20409;-70
2023/10/01 10:00:20;;;;;;;16.60;10.07;;;;;;;22.47;46.69;97188.19;5047980;28;21152;-69
2023/10/01 10:02:54;;;;;;;22.67;11.77;;;;;;;22.19;47.12;97193.00;5047579;28;20728;-70
2023/10/01 10:05:26;;;;;;;22.43;11.70;;;;;;;22.79;45.73;97182.91;5047427;28;20405;-70
2023/10/01 10:08:13;;;;;;;19.53;11.20;;;;;;;22.37;46.31;97183.56;5047286;28;20413;-70
2023/10/01 10:10:48;;;;;;;21.00;11.27;;;;;;;22.95;45.76;97182.53;5047255;28;20890;-68
2023/10/01 10:13:36;;;;;;;20.13;11.50;;;;;;;23.80;43.92;97179.09;5047180;28;20500;-68
2023/10/01 10:19:23;;;;;;;15.93;10.90;;;;;;;23.56;44.31;97173.94;5047862;28;20958;-69
2023/10/01 10:24:46;;;;;;;24.37;10.40;;;;;;;24.21;42.62;97170.19;5047490;28;20413;-69
2023/10/01 10:27:33;;;;;;;18.13;10.90;;;;;;;23.54;42.64;97167.88;5047272;28;20871;-69
2023/10/01 10:30:01;;;;;;;19.90;9.80;;;;;;;23.67;42.42;97172.06;5046899;28;20433;-69
2023/10/01 10:32:27;;;;;;;21.33;9.70;;;;;;;23.62;42.71;97171.63;5046916;28;20409;-69
2023/10/01 10:35:04;;;;;;;19.77;10.47;;;;;;;23.90;41.99;97165.75;5046715;28;20405;-70
2023/10/01 10:37:39;;;;;;;14.47;8.07;;;;;;;24.01;40.08;97161.16;5046242;28;20464;-69
2023/10/01 10:43:01;;;;;;;13.27;8.30;;;;;;;24.37;39.73;97160.78;5047276;28;20575;-69
2023/10/01 10:45:44;;;;;;;16.33;9.47;;;;;;;23.80;40.91;97155.81;5046856;28;20398;-70
2023/10/01 10:48:21;;;;;;;16.53;8.07;;;;;;;23.67;41.20;97160.50;5047313;28;20801;-70
2023/10/01 10:50:53;;;;;;;11.80;8.10;;;;;;;23.61;40.45;97161.00;5046974;28;20425;-70
2023/10/01 10:53:20;;;;;;;17.30;9.10;;;;;;;24.05;39.19;97159.09;5046796;28;20529;-71
2023/10/01 10:55:59;;;;;;;10.67;7.20;;;;;;;23.67;39.65;97145.28;5046832;28;20449;-70
2023/10/01 10:58:25;;;;;;;13.23;8.40;;;;;;;23.42;40.02;97149.16;5046535;28;20959;-70
2023/10/01 11:00:52;;;;;;;14.73;8.07;;;;;;;24.11;38.00;97152.31;5046869;28;20409;-70
2023/10/01 11:03:40;;;;;;;16.70;8.27;;;;;;;24.45;38.24;97145.72;5046585;28;20170;-69
2023/10/01 11:06:15;;;;;;;38.07;11.80;;;;;;;24.50;38.51;97148.03;5046984;28;20409;-69
2023/10/01 11:08:50;;;;;;;23.50;8.10;;;;;;;23.99;38.64;97144.34;5047512;28;20421;-71
2023/10/01 11:11:21;;;;;;;18.50;8.70;;;;;;;24.35;38.47;97135.91;5047407;28;20408;-70
2023/10/01 11:13:47;;;;;;;14.43;8.10;;;;;;;24.03;37.01;97134.22;5046503;28;20490;-68
2023/10/01 11:16:14;;;;;;;15.87;8.73;;;;;;;24.19;36.73;97139.97;5046397;28;20607;-69
2023/10/01 11:18:50;;;;;;;15.17;8.37;;;;;;;24.35;36.07;97130.56;5047664;28;20262;-70
2023/10/01 11:21:20;;;;;;;13.87;7.93;;;;;;;23.85;38.16;97129.47;5048100;28;20444;-70
2023/10/01 11:23:55;;;;;;;14.87;8.10;;;;;;;23.93;38.23;97122.59;5047504;28;20993;-71
2023/10/01 11:26:27;;;;;;;20.00;7.70;;;;;;;24.15;38.50;97127.78;5053174;28;20462;-67
2023/10/01 11:29:10;;;;;;;14.57;8.37;;;;;;;24.38;38.12;97116.84;5047091;28;20616;-69
2023/10/01 11:31:38;;;;;;;14.10;7.40;;;;;;;24.18;38.93;97115.94;5046433;28;20435;-69
2023/10/01 11:34:21;;;;;;;14.33;8.40;;;;;;;23.45;39.98;97111.41;5045886;28;20413;-66
2023/10/01 11:36:56;;;;;;;13.70;8.07;;;;;;;24.00;39.22;97103.19;5045652;28;21241;-69
2023/10/01 11:39:38;;;;;;;20.33;9.07;;;;;;;24.51;38.52;97096.03;5045969;28;20515;-68
2023/10/01 11:42:19;;;;;;;23.47;9.20;;;;;;;24.68;37.69;97100.75;5046191;28;20409;-69
2023/10/01 11:44:52;;;;;;;20.17;8.90;;;;;;;24.86;36.65;97105.44;5045887;28;20850;-68
2023/10/01 11:47:34;;;;;;;19.30;8.00;;;;;;;24.20;35.63;97097.91;5046052;28;20896;-69
2023/10/01 11:50:07;;;;;;;14.90;8.20;;;;;;;23.87;37.12;97103.38;5045892;28;20440;-69
2023/10/01 11:52:33;;;;;;;17.40;7.77;;;;;;;23.59;37.36;97101.34;5045909;28;20416;-69
2023/10/01 11:54:59;;;;;;;12.77;8.17;;;;;;;23.66;37.11;97099.84;5045923;28;20782;-67
2023/10/01 11:57:31;;;;;;;15.13;7.40;;;;;;;23.99;36.55;97101.47;5045798;28;20460;-69
2023/10/01 11:59:58;;;;;;;13.77;7.60;;;;;;;24.08;36.28;97092.63;5046182;28;20195;-71
2023/10/01 12:02:43;;;;;;;13.97;7.07;;;;;;;24.11;36.21;97093.34;5046956;28;20420;-73
2023/10/01 12:05:13;;;;;;;18.80;7.80;;;;;;;24.06;37.07;97094.56;5047099;28;20489;-75
2023/10/01 12:07:39;;;;;;;14.70;8.37;;;;;;;23.48;37.94;97088.00;5048815;28;20405;-74
2023/10/01 12:10:07;;;;;;;23.00;8.17;;;;;;;23.48;37.42;97085.34;5048703;28;20516;-73
2023/10/01 12:12:40;;;;;;;13.93;7.43;;;;;;;23.11;37.72;97083.94;5048028;28;20418;-75
2023/10/01 12:17:53;;;;;;;11.73;6.57;;;;;;;22.84;37.69;97073.66;5047302;28;20412;-74
2023/10/01 12:20:22;;;;;;;13.07;6.83;;;;;;;22.55;39.05;97073.41;5048913;28;20441;-68
2023/10/01 12:23:10;;;;;;;12.90;8.63;;;;;;;23.13;38.20;97076.63;5048996;28;20216;-70
2023/10/01 12:25:53;;;;;;;11.40;7.80;;;;;;;23.52;36.81;97076.06;5049113;28;20413;-68